8分钟前
罗盘
风向 的 风向 240° Stadskanaal Airfield 6/24
风: 6 千吨, 2 beaufort
0 0 0.17778093859221 500 0.32299085377319 1.500 0.47075341907445 3.000 0.62138884920159 5.000 0.8022287624727 8.000 0.90566318494517 10.000
没有观察到明显的云
METAR EHGG 222225Z AUTO 24006KT 9999 NSC 04/02 Q1020

METAR定义 | 嵌入

24小时趋势

航班类别VFRLIFR
温度11 °C3 °C
风速18 千吨0 千吨
能见度10 公里+0 米

更多历史数据

下载我们的安卓应用程序

从你的主屏幕上轻松地访问你的航空天气。
只需一次付费,您就可以获得无广告的体验。

您会帮助我们保持Metar-Taf.com正常运行吗?
您的贡献有助于网站的进一步开发并支付费用。

没有更多广告

您是捐款5美元还是更多?然后,我们将永远不会再向您展示广告,这是我们永恒的感谢!
捐赠前先登录

METAR Stadskanaal Airfield

Stadskanaal Airfield是Stadskanaal,荷兰中的小机场。 机场有{a,plural,=1{一条跑道} other{#跑道}}: 6/24

Stadskanaal Airfield最近未发布观察结果。相反,我们向您显示33 km的报告Groningen Airport Eelde。 该报告是针对2021年10月23日 00:25, 当地时间进行的。

机场观察

风来自西南西 (240°)方向,速度为6 千吨。

可见度为10 公里 或者更多。

有没有观察到明显的云。 没有观察到天花板。

温度为4 °C,阵风为-1 °C。 露点为2 °C,相对湿度为87%。 海平面上的气压为1020 压力 (QNH)。

白天

今天,太阳从08:13升起,在18:19降落。 这适用于Stadskanaal Airfield,世界夏令时可能有所不同。 当地时间与世界标准时间之间的时差为+2 小时。 夏令时目前正在进行中。

公司介绍

我们没有关于这个机场的公司信息。

体会

到Vliegles.nl去找飞行课程,跳伞和其他飞行体验。 浏览页面,了解Stadskanaal Airfield附近所有可用的活动。 你也可以使用搜索功能来寻找你所在地附近的特定飞行课程、跳伞或其他飞行体验。

您是否要在网站上Stadskanaal Airfield飞行的天气? 阅读更多   自由!